MMPR/PVR METAR and TAF weather

Enter ICAO airport designator
Station Type Date Time Source
MMPR METAR 2019/04/22 17:47 UTC NOAA

MMPR 221747Z 21010KT 15SM BKN250 28/19 A2994 RMK SLP139 57004 973 8/002


Station Type Date Time Source
MMPR Decoded METAR 2019/04/22 17:47 UTC NOAA

Puerto Vallarta / Lic, Mexico (MMPR) 20-41N 105-15W
Apr 22, 2019 - 01:47 PM EDT / 2019.04.22 1747 UTC
Wind: from the SSW (210 degrees) at 12 MPH (10 KT):0
Visibility: 15 mile(s):0
Sky conditions: mostly cloudy
Temperature: 82 F (28 C)
Dew Point: 66 F (19 C)
Relative Humidity: 58%
Pressure (altimeter): 29.94 in. Hg (1013 hPa)
Pressure tendency: 0.01 inches (0.4 hPa) lower than three hours ago
ob: MMPR 221747Z 21010KT 15SM BKN250 28/19 A2994 RMK SLP139 57004 973 8/002
cycle: 18

Station Type Date Time Source
MMPR TAF 2019/04/22 18:36 UTC NOAA

TAF MMPR 221629Z 2218/2324 32010KT P6SM SKC TX28/2221Z TN22/2312Z
BECMG 2302/2303 00000KT
FM231000 00000KT P6SM BKN020
FM231600 32010KT P6SM SCT020

Example: see airport list